sensor_id;sensor_type;location;lat;lon;timestamp;P1;durP1;ratioP1;P2;durP2;ratioP2
78402;SDS011;67687;43.508;1.504;2023-12-07T00:01:22;25.98;;;13.85;;
78402;SDS011;67687;43.508;1.504;2023-12-07T00:03:48;22.13;;;11.68;;
78402;SDS011;67687;43.508;1.504;2023-12-07T00:06:15;22.85;;;12.05;;
78402;SDS011;67687;43.508;1.504;2023-12-07T00:08:42;22.80;;;12.83;;
78402;SDS011;67687;43.508;1.504;2023-12-07T00:11:09;26.08;;;13.80;;
78402;SDS011;67687;43.508;1.504;2023-12-07T00:13:35;27.48;;;13.38;;
78402;SDS011;67687;43.508;1.504;2023-12-07T00:16:02;28.27;;;13.63;;
78402;SDS011;67687;43.508;1.504;2023-12-07T00:18:29;20.70;;;13.02;;
78402;SDS011;67687;43.508;1.504;2023-12-07T00:20:55;20.33;;;10.97;;
78402;SDS011;67687;43.508;1.504;2023-12-07T00:23:21;21.98;;;12.70;;
78402;SDS011;67687;43.508;1.504;2023-12-07T00:25:50;20.90;;;11.80;;
78402;SDS011;67687;43.508;1.504;2023-12-07T00:28:16;26.17;;;13.32;;
78402;SDS011;67687;43.508;1.504;2023-12-07T00:30:43;34.55;;;18.08;;
78402;SDS011;67687;43.508;1.504;2023-12-07T00:33:09;28.83;;;15.50;;
78402;SDS011;67687;43.508;1.504;2023-12-07T00:35:35;30.27;;;16.42;;
78402;SDS011;67687;43.508;1.504;2023-12-07T00:38:02;37.08;;;18.70;;
78402;SDS011;67687;43.508;1.504;2023-12-07T00:40:28;29.52;;;16.15;;
78402;SDS011;67687;43.508;1.504;2023-12-07T00:42:56;30.95;;;15.85;;
78402;SDS011;67687;43.508;1.504;2023-12-07T00:45:23;39.97;;;18.93;;
78402;SDS011;67687;43.508;1.504;2023-12-07T00:47:50;27.02;;;14.35;;
78402;SDS011;67687;43.508;1.504;2023-12-07T00:50:16;20.42;;;10.80;;
78402;SDS011;67687;43.508;1.504;2023-12-07T00:52:43;16.50;;;9.40;;
78402;SDS011;67687;43.508;1.504;2023-12-07T00:55:10;19.40;;;10.82;;
78402;SDS011;67687;43.508;1.504;2023-12-07T00:57:36;18.87;;;10.13;;
78402;SDS011;67687;43.508;1.504;2023-12-07T01:00:06;17.95;;;10.25;;
78402;SDS011;67687;43.508;1.504;2023-12-07T01:02:33;22.85;;;11.23;;
78402;SDS011;67687;43.508;1.504;2023-12-07T01:04:59;17.73;;;9.82;;
78402;SDS011;67687;43.508;1.504;2023-12-07T01:07:26;15.82;;;9.82;;
78402;SDS011;67687;43.508;1.504;2023-12-07T01:09:52;18.50;;;9.30;;
78402;SDS011;67687;43.508;1.504;2023-12-07T01:12:18;16.77;;;9.25;;
78402;SDS011;67687;43.508;1.504;2023-12-07T01:14:45;17.65;;;9.48;;
78402;SDS011;67687;43.508;1.504;2023-12-07T01:17:13;19.58;;;8.95;;
78402;SDS011;67687;43.508;1.504;2023-12-07T01:19:39;18.47;;;9.70;;
78402;SDS011;67687;43.508;1.504;2023-12-07T01:22:05;19.55;;;9.75;;
78402;SDS011;67687;43.508;1.504;2023-12-07T01:24:32;18.73;;;10.13;;
78402;SDS011;67687;43.508;1.504;2023-12-07T01:26:58;19.20;;;9.50;;
78402;SDS011;67687;43.508;1.504;2023-12-07T01:29:26;18.45;;;9.57;;
78402;SDS011;67687;43.508;1.504;2023-12-07T01:31:52;18.70;;;10.70;;
78402;SDS011;67687;43.508;1.504;2023-12-07T01:34:20;20.33;;;10.10;;
78402;SDS011;67687;43.508;1.504;2023-12-07T01:36:46;20.60;;;10.82;;
78402;SDS011;67687;43.508;1.504;2023-12-07T01:39:13;18.83;;;11.05;;
78402;SDS011;67687;43.508;1.504;2023-12-07T01:41:41;20.00;;;10.70;;
78402;SDS011;67687;43.508;1.504;2023-12-07T01:44:08;21.17;;;10.67;;
78402;SDS011;67687;43.508;1.504;2023-12-07T01:46:34;23.17;;;10.90;;
78402;SDS011;67687;43.508;1.504;2023-12-07T01:49:01;22.77;;;11.40;;
78402;SDS011;67687;43.508;1.504;2023-12-07T01:51:30;20.45;;;11.68;;
78402;SDS011;67687;43.508;1.504;2023-12-07T01:53:57;23.05;;;10.85;;
78402;SDS011;67687;43.508;1.504;2023-12-07T01:56:24;24.63;;;10.37;;
78402;SDS011;67687;43.508;1.504;2023-12-07T01:58:51;21.13;;;11.15;;
78402;SDS011;67687;43.508;1.504;2023-12-07T02:01:18;25.20;;;11.93;;
78402;SDS011;67687;43.508;1.504;2023-12-07T02:03:44;22.80;;;11.38;;
78402;SDS011;67687;43.508;1.504;2023-12-07T02:06:11;20.75;;;10.95;;
78402;SDS011;67687;43.508;1.504;2023-12-07T02:08:40;19.07;;;9.43;;
78402;SDS011;67687;43.508;1.504;2023-12-07T02:11:07;15.32;;;8.20;;
78402;SDS011;67687;43.508;1.504;2023-12-07T02:13:35;20.63;;;8.38;;
78402;SDS011;67687;43.508;1.504;2023-12-07T02:16:02;16.20;;;7.32;;
78402;SDS011;67687;43.508;1.504;2023-12-07T02:18:32;16.85;;;7.03;;
78402;SDS011;67687;43.508;1.504;2023-12-07T02:21:01;13.87;;;6.37;;
78402;SDS011;67687;43.508;1.504;2023-12-07T02:23:30;13.02;;;6.60;;
78402;SDS011;67687;43.508;1.504;2023-12-07T02:26:01;16.33;;;8.43;;
78402;SDS011;67687;43.508;1.504;2023-12-07T02:28:30;16.58;;;8.52;;
78402;SDS011;67687;43.508;1.504;2023-12-07T02:30:56;14.35;;;7.45;;
78402;SDS011;67687;43.508;1.504;2023-12-07T02:33:22;18.07;;;9.37;;
78402;SDS011;67687;43.508;1.504;2023-12-07T02:35:49;20.88;;;10.38;;
78402;SDS011;67687;43.508;1.504;2023-12-07T02:38:15;17.05;;;9.73;;
78402;SDS011;67687;43.508;1.504;2023-12-07T02:40:43;21.67;;;9.80;;
78402;SDS011;67687;43.508;1.504;2023-12-07T02:43:10;17.55;;;9.88;;
78402;SDS011;67687;43.508;1.504;2023-12-07T02:45:38;18.53;;;10.07;;
78402;SDS011;67687;43.508;1.504;2023-12-07T02:48:05;21.80;;;10.95;;
78402;SDS011;67687;43.508;1.504;2023-12-07T02:50:31;22.08;;;10.23;;
78402;SDS011;67687;43.508;1.504;2023-12-07T02:52:58;20.17;;;9.27;;
78402;SDS011;67687;43.508;1.504;2023-12-07T02:55:24;16.92;;;9.45;;
78402;SDS011;67687;43.508;1.504;2023-12-07T02:57:51;18.60;;;9.87;;
78402;SDS011;67687;43.508;1.504;2023-12-07T03:00:17;20.90;;;11.18;;
78402;SDS011;67687;43.508;1.504;2023-12-07T03:02:45;23.23;;;13.27;;
78402;SDS011;67687;43.508;1.504;2023-12-07T03:05:13;24.95;;;13.20;;
78402;SDS011;67687;43.508;1.504;2023-12-07T03:07:39;26.33;;;13.48;;
78402;SDS011;67687;43.508;1.504;2023-12-07T03:10:06;26.80;;;12.50;;
78402;SDS011;67687;43.508;1.504;2023-12-07T03:12:33;25.20;;;12.50;;
78402;SDS011;67687;43.508;1.504;2023-12-07T03:14:59;28.92;;;14.05;;
78402;SDS011;67687;43.508;1.504;2023-12-07T03:17:26;33.65;;;15.18;;
78402;SDS011;67687;43.508;1.504;2023-12-07T03:19:53;19.10;;;9.68;;
78402;SDS011;67687;43.508;1.504;2023-12-07T03:22:20;20.00;;;9.70;;
78402;SDS011;67687;43.508;1.504;2023-12-07T03:24:51;21.38;;;9.90;;
78402;SDS011;67687;43.508;1.504;2023-12-07T03:27:17;19.58;;;9.52;;
78402;SDS011;67687;43.508;1.504;2023-12-07T03:29:44;18.95;;;9.07;;
78402;SDS011;67687;43.508;1.504;2023-12-07T03:32:11;19.80;;;9.02;;
78402;SDS011;67687;43.508;1.504;2023-12-07T03:34:37;19.43;;;8.83;;
78402;SDS011;67687;43.508;1.504;2023-12-07T03:37:05;21.00;;;8.63;;
78402;SDS011;67687;43.508;1.504;2023-12-07T03:39:32;20.17;;;9.10;;
78402;SDS011;67687;43.508;1.504;2023-12-07T03:41:58;17.20;;;8.75;;
78402;SDS011;67687;43.508;1.504;2023-12-07T03:44:25;16.25;;;8.85;;
78402;SDS011;67687;43.508;1.504;2023-12-07T03:46:52;18.73;;;8.40;;
78402;SDS011;67687;43.508;1.504;2023-12-07T03:49:18;15.20;;;8.25;;
78402;SDS011;67687;43.508;1.504;2023-12-07T03:51:44;14.27;;;7.22;;
78402;SDS011;67687;43.508;1.504;2023-12-07T03:54:12;13.68;;;6.40;;
78402;SDS011;67687;43.508;1.504;2023-12-07T03:56:39;14.38;;;6.10;;
78402;SDS011;67687;43.508;1.504;2023-12-07T03:59:06;13.13;;;6.43;;
78402;SDS011;67687;43.508;1.504;2023-12-07T04:01:32;12.25;;;6.45;;
78402;SDS011;67687;43.508;1.504;2023-12-07T04:03:59;13.77;;;7.05;;
78402;SDS011;67687;43.508;1.504;2023-12-07T04:06:25;18.05;;;6.95;;
78402;SDS011;67687;43.508;1.504;2023-12-07T04:08:52;17.45;;;8.40;;
78402;SDS011;67687;43.508;1.504;2023-12-07T04:11:20;16.23;;;7.40;;
78402;SDS011;67687;43.508;1.504;2023-12-07T04:13:47;15.20;;;7.10;;
78402;SDS011;67687;43.508;1.504;2023-12-07T04:16:14;14.90;;;7.82;;
78402;SDS011;67687;43.508;1.504;2023-12-07T04:18:40;18.60;;;7.90;;
78402;SDS011;67687;43.508;1.504;2023-12-07T04:21:07;16.83;;;8.43;;
78402;SDS011;67687;43.508;1.504;2023-12-07T04:23:33;15.73;;;8.40;;
78402;SDS011;67687;43.508;1.504;2023-12-07T04:26:00;16.90;;;8.18;;
78402;SDS011;67687;43.508;1.504;2023-12-07T04:28:28;12.93;;;7.35;;
78402;SDS011;67687;43.508;1.504;2023-12-07T04:30:54;15.98;;;7.78;;
78402;SDS011;67687;43.508;1.504;2023-12-07T04:33:21;14.73;;;7.80;;
78402;SDS011;67687;43.508;1.504;2023-12-07T04:35:47;16.67;;;7.07;;
78402;SDS011;67687;43.508;1.504;2023-12-07T04:38:14;13.35;;;6.40;;
78402;SDS011;67687;43.508;1.504;2023-12-07T04:40:40;13.90;;;7.18;;
78402;SDS011;67687;43.508;1.504;2023-12-07T04:43:07;13.25;;;6.07;;
78402;SDS011;67687;43.508;1.504;2023-12-07T04:45:35;11.63;;;5.53;;
78402;SDS011;67687;43.508;1.504;2023-12-07T04:48:01;15.00;;;7.20;;
78402;SDS011;67687;43.508;1.504;2023-12-07T04:50:28;18.23;;;8.73;;
78402;SDS011;67687;43.508;1.504;2023-12-07T04:52:55;15.18;;;8.80;;
78402;SDS011;67687;43.508;1.504;2023-12-07T04:55:22;16.52;;;8.32;;
78402;SDS011;67687;43.508;1.504;2023-12-07T04:57:48;17.77;;;7.82;;
78402;SDS011;67687;43.508;1.504;2023-12-07T05:00:15;15.30;;;7.83;;
78402;SDS011;67687;43.508;1.504;2023-12-07T05:02:44;15.40;;;7.93;;
78402;SDS011;67687;43.508;1.504;2023-12-07T05:05:10;15.45;;;7.25;;
78402;SDS011;67687;43.508;1.504;2023-12-07T05:07:37;15.82;;;6.70;;
78402;SDS011;67687;43.508;1.504;2023-12-07T05:10:04;11.48;;;6.15;;
78402;SDS011;67687;43.508;1.504;2023-12-07T05:12:31;11.70;;;6.37;;
78402;SDS011;67687;43.508;1.504;2023-12-07T05:14:57;14.95;;;7.68;;
78402;SDS011;67687;43.508;1.504;2023-12-07T05:17:24;16.63;;;8.75;;
78402;SDS011;67687;43.508;1.504;2023-12-07T05:19:52;14.60;;;8.25;;
78402;SDS011;67687;43.508;1.504;2023-12-07T05:22:18;18.75;;;9.27;;
78402;SDS011;67687;43.508;1.504;2023-12-07T05:24:46;17.50;;;9.10;;
78402;SDS011;67687;43.508;1.504;2023-12-07T05:27:13;20.35;;;9.00;;
78402;SDS011;67687;43.508;1.504;2023-12-07T05:29:39;14.45;;;7.45;;
78402;SDS011;67687;43.508;1.504;2023-12-07T05:32:06;13.60;;;6.97;;
78402;SDS011;67687;43.508;1.504;2023-12-07T05:34:32;15.88;;;7.05;;
78402;SDS011;67687;43.508;1.504;2023-12-07T05:37:01;15.60;;;6.73;;
78402;SDS011;67687;43.508;1.504;2023-12-07T05:39:29;12.43;;;6.25;;
78402;SDS011;67687;43.508;1.504;2023-12-07T05:41:55;11.65;;;4.90;;
78402;SDS011;67687;43.508;1.504;2023-12-07T05:44:22;11.30;;;5.53;;
78402;SDS011;67687;43.508;1.504;2023-12-07T05:46:48;15.73;;;8.23;;
78402;SDS011;67687;43.508;1.504;2023-12-07T05:49:15;20.80;;;8.70;;
78402;SDS011;67687;43.508;1.504;2023-12-07T05:51:42;17.60;;;8.00;;
78402;SDS011;67687;43.508;1.504;2023-12-07T05:54:10;11.07;;;5.00;;
78402;SDS011;67687;43.508;1.504;2023-12-07T05:56:36;11.95;;;5.25;;
78402;SDS011;67687;43.508;1.504;2023-12-07T05:59:03;9.75;;;3.85;;
78402;SDS011;67687;43.508;1.504;2023-12-07T06:01:29;7.50;;;3.37;;
78402;SDS011;67687;43.508;1.504;2023-12-07T06:03:57;8.50;;;3.50;;
78402;SDS011;67687;43.508;1.504;2023-12-07T06:06:23;9.38;;;4.93;;
78402;SDS011;67687;43.508;1.504;2023-12-07T06:08:49;11.35;;;5.57;;
78402;SDS011;67687;43.508;1.504;2023-12-07T06:11:17;22.83;;;12.20;;
78402;SDS011;67687;43.508;1.504;2023-12-07T06:13:44;40.93;;;20.10;;
78402;SDS011;67687;43.508;1.504;2023-12-07T06:16:13;15.18;;;8.00;;
78402;SDS011;67687;43.508;1.504;2023-12-07T06:18:42;41.50;;;19.20;;
78402;SDS011;67687;43.508;1.504;2023-12-07T06:21:08;21.80;;;10.23;;
78402;SDS011;67687;43.508;1.504;2023-12-07T06:23:34;20.30;;;8.80;;
78402;SDS011;67687;43.508;1.504;2023-12-07T06:26:01;20.57;;;9.20;;
78402;SDS011;67687;43.508;1.504;2023-12-07T06:28:31;92.22;;;27.15;;
78402;SDS011;67687;43.508;1.504;2023-12-07T06:30:59;41.05;;;13.00;;
78402;SDS011;67687;43.508;1.504;2023-12-07T06:33:26;40.65;;;14.18;;
78402;SDS011;67687;43.508;1.504;2023-12-07T06:35:52;61.22;;;18.58;;
78402;SDS011;67687;43.508;1.504;2023-12-07T06:38:19;321.43;;;78.40;;
78402;SDS011;67687;43.508;1.504;2023-12-07T06:40:46;223.27;;;57.08;;
78402;SDS011;67687;43.508;1.504;2023-12-07T06:43:12;236.75;;;62.42;;
78402;SDS011;67687;43.508;1.504;2023-12-07T06:45:40;156.38;;;40.38;;
78402;SDS011;67687;43.508;1.504;2023-12-07T06:48:07;59.20;;;19.63;;
78402;SDS011;67687;43.508;1.504;2023-12-07T06:50:33;55.87;;;19.17;;
78402;SDS011;67687;43.508;1.504;2023-12-07T06:53:00;56.25;;;23.23;;
78402;SDS011;67687;43.508;1.504;2023-12-07T06:55:26;36.67;;;16.10;;
78402;SDS011;67687;43.508;1.504;2023-12-07T06:57:53;21.42;;;11.07;;
78402;SDS011;67687;43.508;1.504;2023-12-07T07:00:19;27.17;;;12.82;;
78402;SDS011;67687;43.508;1.504;2023-12-07T07:02:47;21.87;;;9.83;;
78402;SDS011;67687;43.508;1.504;2023-12-07T07:05:14;26.23;;;11.35;;
78402;SDS011;67687;43.508;1.504;2023-12-07T07:07:40;19.98;;;9.93;;
78402;SDS011;67687;43.508;1.504;2023-12-07T07:10:07;19.00;;;9.27;;
78402;SDS011;67687;43.508;1.504;2023-12-07T07:12:37;58.08;;;24.73;;
78402;SDS011;67687;43.508;1.504;2023-12-07T07:15:04;52.03;;;23.37;;
78402;SDS011;67687;43.508;1.504;2023-12-07T07:17:32;41.13;;;19.02;;
78402;SDS011;67687;43.508;1.504;2023-12-07T07:20:00;19.13;;;8.90;;
78402;SDS011;67687;43.508;1.504;2023-12-07T07:22:26;12.82;;;6.50;;
78402;SDS011;67687;43.508;1.504;2023-12-07T07:24:53;12.57;;;6.50;;
78402;SDS011;67687;43.508;1.504;2023-12-07T07:27:20;12.93;;;7.50;;
78402;SDS011;67687;43.508;1.504;2023-12-07T07:29:46;14.10;;;6.50;;
78402;SDS011;67687;43.508;1.504;2023-12-07T07:32:13;10.55;;;5.28;;
78402;SDS011;67687;43.508;1.504;2023-12-07T07:34:40;9.85;;;4.70;;
78402;SDS011;67687;43.508;1.504;2023-12-07T07:37:08;10.43;;;4.93;;
78402;SDS011;67687;43.508;1.504;2023-12-07T07:39:34;10.30;;;5.37;;
78402;SDS011;67687;43.508;1.504;2023-12-07T07:42:01;10.07;;;5.10;;
78402;SDS011;67687;43.508;1.504;2023-12-07T07:44:28;11.10;;;5.47;;
78402;SDS011;67687;43.508;1.504;2023-12-07T07:46:54;9.52;;;5.43;;
78402;SDS011;67687;43.508;1.504;2023-12-07T07:49:21;9.00;;;4.90;;
78402;SDS011;67687;43.508;1.504;2023-12-07T07:51:47;10.63;;;6.40;;
78402;SDS011;67687;43.508;1.504;2023-12-07T07:54:15;12.95;;;5.95;;
78402;SDS011;67687;43.508;1.504;2023-12-07T07:56:42;17.00;;;9.43;;
78402;SDS011;67687;43.508;1.504;2023-12-07T07:59:09;14.82;;;7.25;;
78402;SDS011;67687;43.508;1.504;2023-12-07T08:01:36;13.80;;;5.32;;
78402;SDS011;67687;43.508;1.504;2023-12-07T08:04:03;94.53;;;29.80;;
78402;SDS011;67687;43.508;1.504;2023-12-07T08:06:29;35.53;;;13.65;;
78402;SDS011;67687;43.508;1.504;2023-12-07T08:08:56;15.35;;;7.32;;
78402;SDS011;67687;43.508;1.504;2023-12-07T08:11:23;19.33;;;8.25;;
78402;SDS011;67687;43.508;1.504;2023-12-07T08:13:50;14.65;;;7.05;;
78402;SDS011;67687;43.508;1.504;2023-12-07T08:16:17;13.47;;;5.70;;
78402;SDS011;67687;43.508;1.504;2023-12-07T08:18:44;8.85;;;3.78;;
78402;SDS011;67687;43.508;1.504;2023-12-07T08:21:18;8.20;;;4.00;;
78402;SDS011;67687;43.508;1.504;2023-12-07T08:23:44;8.15;;;3.30;;
78402;SDS011;67687;43.508;1.504;2023-12-07T08:26:10;6.38;;;2.80;;
78402;SDS011;67687;43.508;1.504;2023-12-07T08:28:40;6.07;;;2.50;;
78402;SDS011;67687;43.508;1.504;2023-12-07T08:31:07;6.03;;;2.80;;
78402;SDS011;67687;43.508;1.504;2023-12-07T08:33:33;7.47;;;3.15;;
78402;SDS011;67687;43.508;1.504;2023-12-07T08:36:00;8.50;;;3.95;;
78402;SDS011;67687;43.508;1.504;2023-12-07T08:38:26;6.50;;;2.80;;
78402;SDS011;67687;43.508;1.504;2023-12-07T08:40:53;6.27;;;3.13;;
78402;SDS011;67687;43.508;1.504;2023-12-07T08:43:20;7.82;;;2.70;;
78402;SDS011;67687;43.508;1.504;2023-12-07T08:45:49;4.82;;;1.73;;
78402;SDS011;67687;43.508;1.504;2023-12-07T08:48:15;8.43;;;2.83;;
78402;SDS011;67687;43.508;1.504;2023-12-07T08:50:42;5.03;;;2.65;;
78402;SDS011;67687;43.508;1.504;2023-12-07T08:53:08;5.27;;;2.77;;
78402;SDS011;67687;43.508;1.504;2023-12-07T08:55:35;4.72;;;2.08;;
78402;SDS011;67687;43.508;1.504;2023-12-07T08:58:01;4.32;;;1.60;;
78402;SDS011;67687;43.508;1.504;2023-12-07T09:00:30;4.25;;;1.65;;
78402;SDS011;67687;43.508;1.504;2023-12-07T09:02:58;6.47;;;1.90;;
78402;SDS011;67687;43.508;1.504;2023-12-07T09:05:25;4.67;;;1.63;;
78402;SDS011;67687;43.508;1.504;2023-12-07T09:07:52;3.47;;;1.70;;
78402;SDS011;67687;43.508;1.504;2023-12-07T09:10:19;3.97;;;1.63;;
78402;SDS011;67687;43.508;1.504;2023-12-07T09:12:45;6.35;;;2.10;;
78402;SDS011;67687;43.508;1.504;2023-12-07T09:15:12;4.70;;;1.70;;
78402;SDS011;67687;43.508;1.504;2023-12-07T09:17:38;3.60;;;1.67;;
78402;SDS011;67687;43.508;1.504;2023-12-07T09:20:07;3.97;;;1.55;;
78402;SDS011;67687;43.508;1.504;2023-12-07T09:22:37;4.53;;;1.95;;
78402;SDS011;67687;43.508;1.504;2023-12-07T09:25:02;4.70;;;1.60;;
78402;SDS011;67687;43.508;1.504;2023-12-07T09:27:29;5.43;;;1.70;;
78402;SDS011;67687;43.508;1.504;2023-12-07T09:29:57;4.00;;;1.63;;
78402;SDS011;67687;43.508;1.504;2023-12-07T09:32:23;5.57;;;1.75;;
78402;SDS011;67687;43.508;1.504;2023-12-07T09:34:50;5.00;;;1.58;;
78402;SDS011;67687;43.508;1.504;2023-12-07T09:37:19;5.40;;;1.90;;
78402;SDS011;67687;43.508;1.504;2023-12-07T09:39:46;6.60;;;2.10;;
78402;SDS011;67687;43.508;1.504;2023-12-07T09:42:12;3.20;;;1.10;;
78402;SDS011;67687;43.508;1.504;2023-12-07T09:44:39;5.55;;;1.60;;
78402;SDS011;67687;43.508;1.504;2023-12-07T09:47:05;4.25;;;1.60;;
78402;SDS011;67687;43.508;1.504;2023-12-07T09:49:32;3.03;;;1.50;;
78402;SDS011;67687;43.508;1.504;2023-12-07T09:51:58;4.28;;;1.52;;
78402;SDS011;67687;43.508;1.504;2023-12-07T09:54:26;4.25;;;1.60;;
78402;SDS011;67687;43.508;1.504;2023-12-07T09:56:54;4.45;;;1.67;;
78402;SDS011;67687;43.508;1.504;2023-12-07T09:59:22;3.25;;;1.33;;
78402;SDS011;67687;43.508;1.504;2023-12-07T10:01:48;4.17;;;1.80;;
78402;SDS011;67687;43.508;1.504;2023-12-07T10:04:15;3.47;;;1.30;;
78402;SDS011;67687;43.508;1.504;2023-12-07T10:06:42;4.90;;;1.65;;
78402;SDS011;67687;43.508;1.504;2023-12-07T10:09:08;4.43;;;1.35;;
78402;SDS011;67687;43.508;1.504;2023-12-07T10:11:37;4.93;;;1.58;;
78402;SDS011;67687;43.508;1.504;2023-12-07T10:14:05;5.10;;;1.33;;
78402;SDS011;67687;43.508;1.504;2023-12-07T10:16:32;4.30;;;1.38;;
78402;SDS011;67687;43.508;1.504;2023-12-07T10:19:03;4.35;;;1.65;;
78402;SDS011;67687;43.508;1.504;2023-12-07T10:21:38;3.63;;;1.33;;
78402;SDS011;67687;43.508;1.504;2023-12-07T10:24:05;3.22;;;1.20;;
78402;SDS011;67687;43.508;1.504;2023-12-07T10:26:31;4.33;;;1.30;;
78402;SDS011;67687;43.508;1.504;2023-12-07T10:28:59;3.67;;;1.55;;
78402;SDS011;67687;43.508;1.504;2023-12-07T10:31:26;5.97;;;1.40;;
78402;SDS011;67687;43.508;1.504;2023-12-07T10:33:52;4.85;;;1.70;;
78402;SDS011;67687;43.508;1.504;2023-12-07T10:36:19;4.55;;;1.73;;
78402;SDS011;67687;43.508;1.504;2023-12-07T10:38:45;4.83;;;1.67;;
78402;SDS011;67687;43.508;1.504;2023-12-07T10:41:16;3.90;;;1.35;;
78402;SDS011;67687;43.508;1.504;2023-12-07T10:43:44;3.60;;;1.33;;
78402;SDS011;67687;43.508;1.504;2023-12-07T10:46:15;5.55;;;2.08;;
78402;SDS011;67687;43.508;1.504;2023-12-07T10:48:42;5.10;;;1.77;;
78402;SDS011;67687;43.508;1.504;2023-12-07T10:51:10;7.13;;;1.60;;
78402;SDS011;67687;43.508;1.504;2023-12-07T10:53:40;5.43;;;1.55;;
78402;SDS011;67687;43.508;1.504;2023-12-07T10:56:10;4.18;;;1.90;;
78402;SDS011;67687;43.508;1.504;2023-12-07T10:58:36;3.20;;;1.30;;
78402;SDS011;67687;43.508;1.504;2023-12-07T11:01:03;4.93;;;1.67;;
78402;SDS011;67687;43.508;1.504;2023-12-07T11:03:33;4.10;;;1.80;;
78402;SDS011;67687;43.508;1.504;2023-12-07T11:06:00;4.05;;;1.42;;
78402;SDS011;67687;43.508;1.504;2023-12-07T11:08:33;6.85;;;1.48;;
78402;SDS011;67687;43.508;1.504;2023-12-07T11:11:04;5.00;;;1.48;;
78402;SDS011;67687;43.508;1.504;2023-12-07T11:13:32;4.68;;;1.92;;
78402;SDS011;67687;43.508;1.504;2023-12-07T11:16:00;3.23;;;1.43;;
78402;SDS011;67687;43.508;1.504;2023-12-07T11:18:26;5.15;;;1.73;;
78402;SDS011;67687;43.508;1.504;2023-12-07T11:20:54;3.28;;;1.10;;
78402;SDS011;67687;43.508;1.504;2023-12-07T11:23:21;3.53;;;1.58;;
78402;SDS011;67687;43.508;1.504;2023-12-07T11:25:48;3.75;;;1.50;;
78402;SDS011;67687;43.508;1.504;2023-12-07T11:28:14;4.10;;;1.63;;
78402;SDS011;67687;43.508;1.504;2023-12-07T11:30:42;3.75;;;1.50;;
78402;SDS011;67687;43.508;1.504;2023-12-07T11:33:10;4.75;;;1.90;;
78402;SDS011;67687;43.508;1.504;2023-12-07T11:38:20;6.38;;;1.80;;
78402;SDS011;67687;43.508;1.504;2023-12-07T11:40:46;4.90;;;1.93;;
78402;SDS011;67687;43.508;1.504;2023-12-07T11:43:16;3.92;;;1.50;;
78402;SDS011;67687;43.508;1.504;2023-12-07T11:45:46;4.25;;;1.60;;
78402;SDS011;67687;43.508;1.504;2023-12-07T11:48:14;4.70;;;1.92;;
78402;SDS011;67687;43.508;1.504;2023-12-07T11:50:52;5.05;;;1.90;;
78402;SDS011;67687;43.508;1.504;2023-12-07T11:53:22;3.53;;;1.67;;
78402;SDS011;67687;43.508;1.504;2023-12-07T11:55:49;3.88;;;1.73;;
78402;SDS011;67687;43.508;1.504;2023-12-07T11:58:16;4.22;;;2.03;;
78402;SDS011;67687;43.508;1.504;2023-12-07T12:00:43;3.55;;;1.48;;
78402;SDS011;67687;43.508;1.504;2023-12-07T12:03:11;4.65;;;1.52;;
78402;SDS011;67687;43.508;1.504;2023-12-07T12:05:38;4.70;;;1.60;;
78402;SDS011;67687;43.508;1.504;2023-12-07T12:08:05;5.15;;;1.90;;
78402;SDS011;67687;43.508;1.504;2023-12-07T12:10:33;5.57;;;1.70;;
78402;SDS011;67687;43.508;1.504;2023-12-07T12:13:01;4.70;;;1.67;;
78402;SDS011;67687;43.508;1.504;2023-12-07T12:15:28;5.32;;;1.83;;
78402;SDS011;67687;43.508;1.504;2023-12-07T12:17:55;4.77;;;2.10;;
78402;SDS011;67687;43.508;1.504;2023-12-07T12:20:22;4.57;;;1.70;;
78402;SDS011;67687;43.508;1.504;2023-12-07T12:22:49;4.57;;;1.70;;
78402;SDS011;67687;43.508;1.504;2023-12-07T12:25:15;4.35;;;1.40;;
78402;SDS011;67687;43.508;1.504;2023-12-07T12:27:44;4.55;;;1.48;;
78402;SDS011;67687;43.508;1.504;2023-12-07T12:30:11;5.33;;;1.40;;
78402;SDS011;67687;43.508;1.504;2023-12-07T12:32:42;5.82;;;1.63;;
78402;SDS011;67687;43.508;1.504;2023-12-07T12:35:08;4.68;;;1.77;;
78402;SDS011;67687;43.508;1.504;2023-12-07T12:37:35;4.97;;;1.75;;
78402;SDS011;67687;43.508;1.504;2023-12-07T12:40:05;5.05;;;1.77;;
78402;SDS011;67687;43.508;1.504;2023-12-07T12:42:31;4.77;;;1.60;;
78402;SDS011;67687;43.508;1.504;2023-12-07T12:44:59;5.40;;;1.85;;
78402;SDS011;67687;43.508;1.504;2023-12-07T12:47:26;6.10;;;1.70;;
78402;SDS011;67687;43.508;1.504;2023-12-07T12:49:52;3.55;;;1.50;;
78402;SDS011;67687;43.508;1.504;2023-12-07T12:52:19;5.28;;;1.35;;
78402;SDS011;67687;43.508;1.504;2023-12-07T12:54:45;3.43;;;1.40;;
78402;SDS011;67687;43.508;1.504;2023-12-07T12:57:12;3.85;;;1.52;;
78402;SDS011;67687;43.508;1.504;2023-12-07T12:59:39;4.18;;;1.55;;
78402;SDS011;67687;43.508;1.504;2023-12-07T13:02:07;7.72;;;1.75;;
78402;SDS011;67687;43.508;1.504;2023-12-07T13:04:34;4.50;;;1.73;;
78402;SDS011;67687;43.508;1.504;2023-12-07T13:07:00;3.37;;;1.43;;
78402;SDS011;67687;43.508;1.504;2023-12-07T13:09:27;7.22;;;1.45;;
78402;SDS011;67687;43.508;1.504;2023-12-07T13:11:54;4.10;;;1.60;;
78402;SDS011;67687;43.508;1.504;2023-12-07T13:14:20;6.32;;;1.45;;
78402;SDS011;67687;43.508;1.504;2023-12-07T13:16:47;4.45;;;1.77;;
78402;SDS011;67687;43.508;1.504;2023-12-07T13:19:14;5.43;;;1.63;;
78402;SDS011;67687;43.508;1.504;2023-12-07T13:21:41;4.28;;;1.60;;
78402;SDS011;67687;43.508;1.504;2023-12-07T13:24:08;5.25;;;1.80;;
78402;SDS011;67687;43.508;1.504;2023-12-07T13:26:37;3.95;;;1.48;;
78402;SDS011;67687;43.508;1.504;2023-12-07T13:29:04;5.50;;;1.80;;
78402;SDS011;67687;43.508;1.504;2023-12-07T13:31:32;6.67;;;1.90;;
78402;SDS011;67687;43.508;1.504;2023-12-07T13:34:00;5.10;;;1.65;;
78402;SDS011;67687;43.508;1.504;2023-12-07T13:36:27;5.85;;;1.67;;
78402;SDS011;67687;43.508;1.504;2023-12-07T13:38:55;4.50;;;1.55;;
78402;SDS011;67687;43.508;1.504;2023-12-07T13:41:22;5.07;;;2.10;;
78402;SDS011;67687;43.508;1.504;2023-12-07T13:43:48;6.27;;;2.37;;
78402;SDS011;67687;43.508;1.504;2023-12-07T13:46:15;3.90;;;1.40;;
78402;SDS011;67687;43.508;1.504;2023-12-07T13:48:42;4.07;;;2.08;;
78402;SDS011;67687;43.508;1.504;2023-12-07T13:51:08;6.35;;;1.77;;
78402;SDS011;67687;43.508;1.504;2023-12-07T13:53:36;3.28;;;1.33;;
78402;SDS011;67687;43.508;1.504;2023-12-07T13:56:03;5.53;;;2.05;;
78402;SDS011;67687;43.508;1.504;2023-12-07T13:58:30;6.60;;;1.90;;
78402;SDS011;67687;43.508;1.504;2023-12-07T14:00:56;5.30;;;1.75;;
78402;SDS011;67687;43.508;1.504;2023-12-07T14:03:23;5.15;;;1.55;;
78402;SDS011;67687;43.508;1.504;2023-12-07T14:05:49;4.07;;;1.27;;
78402;SDS011;67687;43.508;1.504;2023-12-07T14:08:16;5.85;;;1.98;;
78402;SDS011;67687;43.508;1.504;2023-12-07T14:10:45;5.40;;;1.60;;
78402;SDS011;67687;43.508;1.504;2023-12-07T14:13:12;4.75;;;1.50;;
78402;SDS011;67687;43.508;1.504;2023-12-07T14:15:39;3.42;;;1.70;;
78402;SDS011;67687;43.508;1.504;2023-12-07T14:18:05;4.50;;;1.73;;
78402;SDS011;67687;43.508;1.504;2023-12-07T14:20:32;5.20;;;1.83;;
78402;SDS011;67687;43.508;1.504;2023-12-07T14:22:58;4.73;;;1.80;;
78402;SDS011;67687;43.508;1.504;2023-12-07T14:25:29;4.43;;;1.80;;
78402;SDS011;67687;43.508;1.504;2023-12-07T14:27:57;7.57;;;1.80;;
78402;SDS011;67687;43.508;1.504;2023-12-07T14:30:23;4.45;;;1.30;;
78402;SDS011;67687;43.508;1.504;2023-12-07T14:32:50;4.15;;;1.92;;
78402;SDS011;67687;43.508;1.504;2023-12-07T14:35:17;5.97;;;1.80;;
78402;SDS011;67687;43.508;1.504;2023-12-07T14:37:44;4.80;;;1.83;;
78402;SDS011;67687;43.508;1.504;2023-12-07T14:40:11;5.90;;;2.30;;